Time;durP1;ratioP1;P1;durP2;ratioP2;P2;SDS_P1;SDS_P2;PMS_P1;PMS_P2;Temp;Humidity;BMP_temperature;BMP_pressure;BME280_temperature;BME280_humidity;BME280_pressure;Samples;Min_cycle;Max_cycle;Signal;HPM_P1;HPM_P2
2022/08/20 00:03:01;;;;;;;8.27;4.97;;;21.70;99.90;;;20.52;96.28;99543.97;10269037;28;98720;-83
2022/08/20 00:08:06;;;;;;;11.82;5.35;;;21.60;99.90;;;20.45;95.98;99562.22;10261441;28;98210;-83
2022/08/20 00:13:15;;;;;;;9.35;5.20;;;21.60;99.90;;;20.42;96.03;99576.16;10263408;28;98202;-83
2022/08/20 00:18:21;;;;;;;9.40;4.85;;;21.50;99.90;;;20.43;96.54;99577.78;10271546;28;96667;-83
2022/08/20 00:23:24;;;;;;;8.68;5.55;;;21.50;99.90;;;20.42;96.59;99570.75;10274279;28;96939;-83
2022/08/20 00:28:27;;;;;;;8.18;5.93;;;21.50;99.90;;;20.40;96.14;99581.00;10254621;28;97568;-83
2022/08/20 00:33:31;;;;;;;11.32;5.70;;;21.50;99.90;;;20.35;95.95;99586.31;10263341;28;97562;-83
2022/08/20 00:38:36;;;;;;;6.13;4.57;;;21.50;99.90;;;20.32;96.44;99567.91;10276669;28;98704;-83
2022/08/20 00:43:44;;;;;;;11.35;4.55;;;21.50;99.90;;;20.30;96.14;99572.75;10262489;28;98296;-83
2022/08/20 00:48:52;;;;;;;11.38;5.07;;;21.40;99.90;;;20.23;96.59;99581.00;10269937;28;98692;-83
2022/08/20 00:54:21;;;;;;;8.38;4.78;;;21.40;99.90;;;20.18;96.51;99562.03;10250997;28;98680;-83
2022/08/20 00:59:28;;;;;;;8.15;5.00;;;21.30;99.90;;;20.18;96.53;99572.00;10268256;28;97042;-83
2022/08/20 01:04:34;;;;;;;9.93;4.57;;;21.30;99.90;;;20.12;96.28;99548.72;10250318;28;96800;-83
2022/08/20 01:09:38;;;;;;;11.52;5.63;;;21.30;99.90;;;20.08;96.40;99543.00;10272737;28;98667;-83
2022/08/20 01:15:03;;;;;;;9.55;5.35;;;21.20;99.90;;;20.03;96.49;99527.56;10261494;28;99090;-83
2022/08/20 01:20:39;;;;;;;8.40;5.07;;;21.20;99.90;;;19.99;96.17;99507.53;10271020;28;100167;-83
2022/08/20 01:26:04;;;;;;;11.95;5.20;;;21.10;99.90;;;19.89;96.32;99480.41;10266063;28;97497;-83
2022/08/20 01:31:14;;;;;;;8.60;4.45;;;21.00;99.90;;;19.81;96.38;99482.72;10266684;28;98477;-83
2022/08/20 01:36:49;;;;;;;10.00;4.50;;;20.90;99.90;;;19.77;96.00;99480.50;10272083;28;96637;-83
2022/08/20 01:42:26;;;;;;;10.45;4.63;;;20.90;99.90;;;19.69;95.99;99482.78;10285194;28;99361;-83
2022/08/20 01:47:31;;;;;;;12.93;6.20;;;20.70;99.90;;;19.59;95.97;99466.44;10267239;28;97388;-82
2022/08/20 01:53:12;;;;;;;9.93;5.85;;;20.60;99.90;;;19.59;96.59;99463.75;10267407;28;97563;-83
2022/08/20 01:58:15;;;;;;;12.63;6.22;;;20.60;99.90;;;19.59;96.87;99455.66;10282823;28;98849;-83
2022/08/20 02:03:18;;;;;;;12.15;7.45;;;20.60;99.90;;;19.63;96.73;99454.13;10273257;28;97436;-83
2022/08/20 02:08:21;;;;;;;10.80;6.50;;;20.60;99.90;;;19.66;96.74;99457.13;10290446;28;97152;-83
2022/08/20 02:13:24;;;;;;;15.57;6.85;;;20.60;99.90;;;19.70;96.85;99454.78;10262602;28;98698;-83
2022/08/20 02:18:27;;;;;;;7.18;5.25;;;20.60;99.90;;;19.75;96.48;99476.41;10268908;28;97379;-83
2022/08/20 02:23:30;;;;;;;9.65;5.70;;;20.70;99.90;;;19.76;96.71;99473.47;10251257;28;98766;-83
2022/08/20 02:28:33;;;;;;;15.98;5.78;;;20.80;99.90;;;19.78;96.63;99489.41;10282131;28;97019;-83
2022/08/20 02:33:36;;;;;;;10.63;5.47;;;20.90;99.90;;;19.78;96.55;99484.00;10269198;28;98844;-83
2022/08/20 02:38:41;;;;;;;10.40;6.35;;;20.90;99.90;;;19.80;96.33;99511.56;10268379;28;98617;-84
2022/08/20 02:43:44;;;;;;;11.65;7.18;;;20.90;99.90;;;19.82;96.05;99519.38;10281571;28;98503;-84
2022/08/20 02:48:47;;;;;;;14.93;9.02;;;20.90;99.90;;;19.86;96.22;99521.34;10269430;28;96828;-84
2022/08/20 02:53:50;;;;;;;14.68;8.10;;;20.90;99.90;;;19.88;96.33;99530.00;10286943;28;96973;-83
2022/08/20 02:58:53;;;;;;;9.77;6.57;;;20.90;99.90;;;19.88;95.89;99527.31;10265087;28;99630;-83
2022/08/20 03:03:58;;;;;;;12.77;6.80;;;20.90;99.90;;;19.88;95.69;99539.97;10243487;28;96594;-83
2022/08/20 03:09:04;;;;;;;10.00;6.45;;;21.00;99.90;;;19.87;96.06;99520.28;10280224;28;97122;-83
2022/08/20 03:14:07;;;;;;;9.20;5.65;;;21.00;99.90;;;19.84;95.74;99545.03;10259622;28;96937;-83
2022/08/20 03:19:12;;;;;;;13.52;7.63;;;21.00;99.90;;;19.80;95.85;99560.06;10285410;28;97379;-83
2022/08/20 03:24:15;;;;;;;11.50;6.78;;;20.90;99.90;;;19.78;95.74;99568.38;10296717;28;97751;-84
2022/08/20 03:29:18;;;;;;;9.90;7.05;;;20.90;99.90;;;19.81;95.84;99587.84;10265505;28;96908;-83
2022/08/20 03:34:20;;;;;;;13.23;9.05;;;20.90;99.90;;;19.80;95.83;99565.47;10271805;28;99146;-83
2022/08/20 03:39:23;;;;;;;12.70;7.95;;;21.00;99.90;;;19.87;96.04;99568.81;10279203;28;97453;-83
2022/08/20 03:44:26;;;;;;;13.32;7.72;;;21.00;99.90;;;19.83;95.54;99575.75;10286085;28;97618;-84
2022/08/20 03:49:30;;;;;;;10.13;7.53;;;21.00;99.90;;;19.75;95.67;99560.81;10269574;28;97519;-83
2022/08/20 03:54:34;;;;;;;11.25;7.43;;;20.80;99.90;;;19.74;95.70;99556.47;10282412;28;97320;-84
2022/08/20 03:59:37;;;;;;;12.73;8.73;;;20.80;99.90;;;19.78;96.23;99573.78;10249383;28;98715;-84
2022/08/20 04:04:40;;;;;;;14.23;8.25;;;20.80;99.90;;;19.86;96.41;99569.88;10279122;28;97455;-84
2022/08/20 04:09:43;;;;;;;10.18;7.63;;;20.90;99.90;;;19.91;96.16;99561.03;10288468;28;96779;-84
2022/08/20 04:14:46;;;;;;;12.15;7.82;;;20.90;99.90;;;19.93;96.49;99556.25;10280789;28;97583;-84
2022/08/20 04:19:49;;;;;;;16.05;8.13;;;20.90;99.90;;;19.97;96.33;99560.91;10272301;28;98732;-84
2022/08/20 04:24:52;;;;;;;15.50;8.15;;;21.00;99.90;;;19.99;96.13;99558.78;10275591;28;97593;-84
2022/08/20 04:29:55;;;;;;;15.43;8.07;;;21.00;99.90;;;20.02;96.41;99563.66;10266063;28;96844;-84
2022/08/20 04:34:59;;;;;;;12.80;8.63;;;21.00;99.90;;;20.07;96.19;99560.25;10287890;28;97572;-84
2022/08/20 04:41:11;;;;;;;12.55;7.20;;;21.10;99.90;;;20.14;96.26;99550.09;10286579;28;97480;-84
2022/08/20 04:45:44;;;;;;;11.40;8.65;;;21.20;99.90;;;20.13;95.78;99550.34;10273987;28;98604;-84
2022/08/20 04:50:46;;;;;;;10.70;7.78;;;21.20;99.90;;;20.07;95.65;99562.13;10256058;28;97386;-84
2022/08/20 04:55:51;;;;;;;12.73;8.00;;;21.10;99.90;;;20.01;96.00;99570.13;10253620;28;98151;-84
2022/08/20 05:00:57;;;;;;;11.65;7.65;;;21.10;99.90;;;20.04;96.26;99566.13;10269090;28;97435;-84
2022/08/20 05:06:05;;;;;;;11.15;7.70;;;21.10;99.90;;;20.02;95.98;99571.75;10267514;28;98873;-84
2022/08/20 05:11:08;;;;;;;12.32;7.50;;;21.10;99.90;;;20.04;96.02;99566.94;10261148;28;97440;-84
2022/08/20 05:16:36;;;;;;;9.18;7.20;;;21.10;99.90;;;20.01;96.13;99562.03;10267603;28;98106;-84
2022/08/20 05:21:40;;;;;;;12.60;6.80;;;21.10;99.90;;;20.00;96.47;99571.19;10265091;28;96930;-84
2022/08/20 05:26:43;;;;;;;15.02;7.38;;;21.10;99.90;;;20.07;97.89;99573.72;10297345;28;96796;-84
2022/08/20 05:31:46;;;;;;;10.15;5.82;;;21.20;99.90;;;20.18;98.61;99558.53;10287470;22;99286;-81
2022/08/20 05:36:51;;;;;;;9.50;5.85;;;21.30;99.90;;;20.31;98.65;99553.59;10281655;28;97377;-83
2022/08/20 05:41:58;;;;;;;9.48;5.35;;;21.40;99.90;;;20.48;98.43;99542.81;10264567;28;97031;-81
2022/08/20 05:47:01;;;;;;;7.20;5.03;;;21.60;99.90;;;20.68;97.88;99536.06;10267863;28;98381;-79
2022/08/20 05:52:06;;;;;;;10.65;5.30;;;21.70;99.90;;;20.90;97.95;99552.28;10281779;28;97412;-80
2022/08/20 05:57:09;;;;;;;11.90;5.65;;;22.00;99.90;;;21.08;97.52;99544.66;10262204;28;96817;-81
2022/08/20 06:07:37;;;;;;;12.10;4.95;;;22.30;99.90;;;21.30;96.29;99550.09;10280781;28;98226;-80
2022/08/20 06:12:43;;;;;;;9.63;5.18;;;22.40;99.90;;;21.41;96.46;99553.72;10269679;28;98478;-80
2022/08/20 06:17:46;;;;;;;8.63;4.55;;;22.60;99.90;;;21.52;96.50;99549.22;10285994;28;98851;-80
2022/08/20 06:23:00;;;;;;;6.60;4.60;;;22.70;99.90;;;21.62;95.80;99544.72;10280797;28;97565;-80
2022/08/20 06:28:04;;;;;;;7.53;4.43;;;22.80;99.90;;;21.74;95.62;99549.16;10255830;28;97240;-80
2022/08/20 06:33:07;;;;;;;9.70;4.43;;;22.90;99.90;;;21.86;95.07;99547.91;10243231;28;98178;-81
2022/08/20 06:38:11;;;;;;;9.50;4.68;;;23.10;99.90;;;21.97;94.42;99548.81;10268155;28;97830;-82
2022/08/20 06:43:14;;;;;;;9.40;4.38;;;23.20;99.90;;;22.03;93.45;99555.91;10267531;28;96874;-81
2022/08/20 06:48:17;;;;;;;8.27;4.90;;;23.30;99.90;;;22.10;93.29;99561.94;10271517;28;96786;-81
2022/08/20 06:53:21;;;;;;;8.88;4.57;;;23.40;99.90;;;22.18;92.31;99574.16;10284093;28;97472;-81
2022/08/20 06:58:24;;;;;;;8.02;5.38;;;23.40;99.90;;;22.25;92.41;99573.94;10261782;28;97880;-81
2022/08/20 07:03:41;;;;;;;7.63;4.90;;;23.40;99.90;;;22.35;93.05;99571.31;10250105;28;97127;-81
2022/08/20 07:08:57;;;;;;;11.18;6.47;;;23.50;99.90;;;22.52;91.90;99601.75;10253932;28;98474;-81
2022/08/20 07:14:04;;;;;;;11.68;4.80;;;23.70;99.90;;;22.73;89.79;99615.41;10286776;28;98545;-81
2022/08/20 07:19:07;;;;;;;12.05;5.53;;;23.80;99.90;;;22.76;85.99;99613.00;10267280;28;98317;-82
2022/08/20 07:24:11;;;;;;;11.73;5.55;;;23.80;99.90;;;22.79;84.59;99622.50;10252254;28;97552;-83
2022/08/20 07:29:14;;;;;;;10.85;5.53;;;23.80;99.90;;;22.74;83.54;99619.78;10285922;28;96574;-85
2022/08/20 07:34:17;;;;;;;11.02;5.55;;;23.70;99.90;;;22.63;83.02;99598.03;10251345;28;96736;-81
2022/08/20 07:39:21;;;;;;;13.07;6.97;;;23.70;99.90;;;22.62;82.23;99618.06;10264109;28;98470;-82
2022/08/20 07:44:25;;;;;;;10.85;5.45;;;23.60;99.90;;;22.60;81.42;99630.22;10272315;28;98343;-82
2022/08/20 07:49:38;;;;;;;13.77;5.90;;;23.60;99.90;;;22.56;81.04;99640.78;10255083;28;96923;-81
2022/08/20 07:54:42;;;;;;;12.50;5.30;;;23.60;99.90;;;22.47;81.13;99636.91;10275311;28;97343;-82
2022/08/20 07:59:47;;;;;;;7.72;4.05;;;23.50;99.90;;;22.37;84.04;99659.31;10269382;28;98335;-82
2022/08/20 08:04:50;;;;;;;12.60;4.68;;;23.40;99.90;;;22.25;84.96;99677.63;10247125;28;97116;-82
2022/08/20 08:09:55;;;;;;;12.38;4.82;;;23.30;99.90;;;22.18;87.11;99713.00;10268506;28;96673;-81
2022/08/20 08:14:58;;;;;;;9.65;5.43;;;23.30;99.90;;;22.10;88.69;99742.41;10259031;28;96663;-83
2022/08/20 08:20:06;;;;;;;12.30;6.85;;;23.20;99.90;;;22.01;87.75;99738.47;10257146;28;98113;-83
2022/08/20 08:25:12;;;;;;;9.75;6.38;;;23.10;99.90;;;21.94;87.95;99763.03;10246746;28;98360;-83
2022/08/20 08:30:15;;;;;;;13.45;6.68;;;23.00;99.90;;;21.88;87.02;99758.63;10278872;28;99081;-86
2022/08/20 08:35:18;;;;;;;10.20;5.95;;;23.00;99.90;;;21.79;85.64;99763.66;10271213;28;96723;-86
2022/08/20 08:40:21;;;;;;;10.15;5.53;;;22.90;99.90;;;21.76;85.65;99776.88;10268562;28;96630;-87
2022/08/20 08:45:36;;;;;;;11.98;6.00;;;22.90;99.90;;;21.64;84.82;99755.34;10256333;28;97260;-88
2022/08/20 08:50:44;;;;;;;9.48;5.88;;;22.80;99.90;;;21.52;84.70;99743.84;10273100;28;96766;-89
2022/08/20 08:55:56;;;;;;;13.77;7.38;;;22.70;99.90;;;21.29;84.88;99761.09;10271321;28;96873;-89
2022/08/20 09:01:22;;;;;;;11.82;7.10;;;22.50;99.90;;;21.07;85.98;99740.25;10270883;28;96717;-88
2022/08/20 09:06:46;;;;;;;10.27;6.97;;;22.30;99.90;;;20.83;87.23;99731.50;10272068;28;97400;-86
2022/08/20 09:12:01;;;;;;;11.15;7.03;;;22.10;99.90;;;20.60;87.97;99730.84;10254294;28;98386;-85
2022/08/20 09:17:05;;;;;;;12.50;7.22;;;21.80;99.90;;;20.40;89.05;99713.22;10267305;28;96932;-88
2022/08/20 09:22:19;;;;;;;13.90;9.38;;;21.70;99.90;;;20.24;90.19;99714.84;10246846;28;96915;-89
2022/08/20 09:27:22;;;;;;;12.80;7.93;;;21.50;99.90;;;20.06;90.80;99725.81;10249408;28;97239;-87
2022/08/20 09:32:25;;;;;;;10.60;7.22;;;21.40;99.90;;;19.93;92.40;99770.09;10230567;28;97221;-87
2022/08/20 09:37:31;;;;;;;10.30;6.93;;;21.20;99.90;;;19.86;93.62;99812.56;10285542;28;96863;-86
2022/08/20 09:42:39;;;;;;;13.20;7.85;;;21.20;99.90;;;19.76;94.61;99860.84;10251132;28;97033;-87
2022/08/20 09:47:43;;;;;;;13.57;7.60;;;21.10;99.90;;;19.66;95.87;99818.31;10285759;28;96586;-87
2022/08/20 09:53:02;;;;;;;17.08;9.20;;;21.00;99.90;;;19.61;97.20;99820.06;10239079;28;97351;-85
2022/08/20 09:58:21;;;;;;;13.20;9.07;;;20.90;99.90;;;19.60;98.59;99791.47;10250992;28;96715;-86
2022/08/20 10:03:24;;;;;;;14.13;9.43;;;21.00;99.90;;;19.60;99.68;99797.69;10287793;28;97449;-87
2022/08/20 10:08:27;;;;;;;14.82;9.25;;;20.90;99.90;;;19.60;100.00;99737.59;10268424;28;96726;-88
2022/08/20 10:13:30;;;;;;;14.20;9.90;;;20.90;99.90;;;19.53;100.00;99660.34;10288404;28;96601;-87
2022/08/20 10:18:35;;;;;;;14.95;10.60;;;20.80;99.90;;;19.44;100.00;99667.19;10269226;28;96963;-87
2022/08/20 10:23:39;;;;;;;15.50;10.02;;;20.70;99.90;;;19.42;100.00;99688.13;10265369;28;98536;-87
2022/08/20 10:28:43;;;;;;;17.02;10.05;;;20.70;99.90;;;19.45;100.00;99655.34;10268030;28;96864;-87
2022/08/20 10:33:45;;;;;;;13.35;8.27;;;20.70;99.90;;;19.53;100.00;99662.22;10253422;28;97042;-87
2022/08/20 10:38:48;;;;;;;10.65;6.22;;;20.80;99.90;;;19.61;100.00;99674.53;10266385;28;96705;-89
2022/08/20 10:43:51;;;;;;;10.50;5.40;;;20.90;99.90;;;19.77;100.00;99671.06;10269630;28;98235;-92
2022/08/20 10:48:54;;;;;;;10.23;5.88;;;21.00;99.90;;;19.99;100.00;99672.03;10253491;28;97467;-89
2022/08/20 10:53:57;;;;;;;8.30;5.28;;;21.30;99.90;;;20.14;100.00;99681.44;10260000;28;96597;-89
2022/08/20 10:58:59;;;;;;;11.32;6.18;;;21.40;99.90;;;20.24;100.00;99687.03;10294362;28;97333;-89
2022/08/20 11:04:03;;;;;;;11.82;6.85;;;21.50;99.90;;;20.28;100.00;99690.91;10272199;28;96690;-88
2022/08/20 11:09:06;;;;;;;13.57;9.95;;;21.60;99.90;;;20.29;100.00;99708.72;10258560;28;96726;-90
2022/08/20 11:14:11;;;;;;;13.85;8.43;;;21.60;99.90;;;20.23;100.00;99718.59;10246484;28;96854;-91
2022/08/20 11:19:14;;;;;;;12.32;8.30;;;21.50;99.90;;;20.12;100.00;99724.03;10276664;28;98916;-90
2022/08/20 11:24:18;;;;;;;11.00;7.72;;;21.50;99.90;;;20.04;100.00;99733.34;10246744;28;97191;-92
2022/08/20 11:29:21;;;;;;;10.85;7.70;;;21.40;99.90;;;20.00;100.00;99727.59;10243001;28;96975;-91
2022/08/20 11:34:24;;;;;;;10.57;7.15;;;21.40;99.90;;;20.05;100.00;99708.84;10250959;28;96616;-91
2022/08/20 11:39:27;;;;;;;11.68;8.00;;;21.40;99.90;;;20.24;100.00;99709.44;10266145;28;98177;-91
2022/08/20 11:44:30;;;;;;;8.68;5.63;;;21.50;99.90;;;20.41;100.00;99701.38;10244446;28;98495;-94
2022/08/20 11:49:36;;;;;;;10.50;5.90;;;21.70;99.90;;;20.63;100.00;99693.41;10267148;28;98773;-93
2022/08/20 11:54:41;;;;;;;10.25;5.30;;;21.90;99.90;;;20.83;100.00;99692.88;10251381;28;97449;-93
2022/08/20 11:59:52;;;;;;;10.10;6.72;;;22.10;99.90;;;20.92;100.00;99682.47;10250348;28;96733;-89
2022/08/20 12:04:56;;;;;;;8.02;5.60;;;22.20;99.90;;;21.01;100.00;99673.69;10268318;28;96850;-88
2022/08/20 12:09:59;;;;;;;11.45;7.18;;;22.20;99.90;;;21.01;100.00;99671.00;10271281;28;98855;-89
2022/08/20 12:15:03;;;;;;;8.55;4.30;;;22.20;99.90;;;21.05;100.00;99669.44;10257492;28;97111;-90
2022/08/20 12:20:10;;;;;;;8.40;3.80;;;22.30;99.90;;;21.11;100.00;99663.03;10252641;28;96766;-90
2022/08/20 12:25:14;;;;;;;6.47;3.53;;;22.30;99.90;;;21.13;100.00;99648.47;10250813;28;96776;-91
2022/08/20 12:30:21;;;;;;;10.43;3.80;;;22.40;99.90;;;21.17;100.00;99638.78;10269236;28;97161;-90
2022/08/20 12:35:25;;;;;;;5.95;2.83;;;22.50;99.90;;;21.23;100.00;99618.84;10229790;28;96584;-89
2022/08/20 12:40:28;;;;;;;5.30;3.35;;;22.50;99.90;;;21.30;100.00;99606.84;10232022;28;96812;-91
2022/08/20 12:45:35;;;;;;;7.30;3.08;;;22.60;99.90;;;21.43;100.00;99594.81;10249091;28;97077;-91
2022/08/20 12:50:44;;;;;;;4.95;3.15;;;22.70;99.90;;;21.51;100.00;99594.34;10247458;28;96673;-87
2022/08/20 12:55:47;;;;;;;6.75;3.20;;;22.80;99.90;;;21.52;98.97;99589.75;10221241;28;96749;-88
2022/08/20 13:00:50;;;;;;;6.72;3.00;;;22.80;99.90;;;21.59;99.67;99577.69;10236135;28;97196;-89
2022/08/20 13:05:53;;;;;;;6.22;2.97;;;22.90;99.90;;;21.63;98.69;99573.38;10232426;28;96685;-88
2022/08/20 13:10:56;;;;;;;9.90;3.58;;;23.00;99.90;;;21.70;98.34;99569.66;10243417;28;98625;-87
2022/08/20 13:15:59;;;;;;;6.35;3.25;;;23.10;99.90;;;21.69;95.01;99566.16;10242644;28;97013;-86
2022/08/20 13:21:02;;;;;;;6.72;3.80;;;23.20;99.90;;;21.69;93.51;99562.63;10242136;28;96674;-90
2022/08/20 13:26:05;;;;;;;8.43;3.50;;;23.30;99.90;;;21.77;94.92;99551.34;10231533;28;96656;-89
2022/08/20 13:31:08;;;;;;;6.78;3.35;;;23.30;99.90;;;21.77;92.34;99544.06;10225829;28;97496;-88
2022/08/20 13:36:12;;;;;;;5.80;3.65;;;23.30;99.90;;;21.81;92.08;99552.47;10251239;28;97995;-84
2022/08/20 13:41:15;;;;;;;7.13;3.45;;;23.30;99.90;;;21.83;91.25;99551.16;10249934;28;98184;-84
2022/08/20 13:46:18;;;;;;;6.57;3.50;;;23.40;99.90;;;21.91;91.95;99553.38;10248331;28;98800;-85
2022/08/20 13:51:21;;;;;;;6.38;3.40;;;23.40;99.90;;;21.98;93.24;99553.16;10246998;28;97017;-85
2022/08/20 13:56:29;;;;;;;6.70;3.08;;;23.50;99.90;;;22.03;92.29;99555.09;10243525;28;96890;-85
2022/08/20 14:01:32;;;;;;;9.48;3.47;;;23.50;99.90;;;22.08;93.41;99555.94;10237700;28;98142;-85
2022/08/20 14:06:36;;;;;;;5.95;3.53;;;23.60;99.90;;;22.11;93.77;99563.56;10248899;28;96636;-84
2022/08/20 14:11:38;;;;;;;6.47;3.53;;;23.60;99.90;;;22.04;92.03;99572.94;10244349;28;98622;-85
2022/08/20 14:16:42;;;;;;;10.13;3.75;;;23.60;99.90;;;22.01;92.15;99577.00;10227673;28;96615;-84
2022/08/20 14:21:45;;;;;;;6.72;3.08;;;23.50;99.90;;;22.02;93.02;99581.34;10252526;28;98464;-85
2022/08/20 14:26:48;;;;;;;10.98;3.47;;;23.50;99.90;;;22.02;92.80;99577.81;10250289;28;97692;-84
2022/08/20 14:31:51;;;;;;;9.13;3.63;;;23.50;99.90;;;22.01;92.26;99565.34;10243726;28;98820;-84
2022/08/20 14:36:54;;;;;;;8.18;3.28;;;23.50;99.90;;;22.01;92.57;99560.78;10220596;28;98248;-85
2022/08/20 14:41:57;;;;;;;9.05;3.90;;;23.60;99.90;;;21.96;91.06;99538.28;10251631;28;96809;-85
2022/08/20 14:47:34;;;;;;;6.63;3.53;;;23.50;99.90;;;21.94;90.94;99530.38;10241398;28;96803;-84
2022/08/20 14:52:37;;;;;;;6.50;3.67;;;23.50;99.90;;;22.01;92.56;99514.78;10224889;28;96775;-84
2022/08/20 14:57:41;;;;;;;10.25;4.20;;;23.50;99.90;;;22.09;93.91;99529.72;10242290;28;98225;-84
2022/08/20 15:02:45;;;;;;;6.93;3.95;;;23.60;99.90;;;22.19;94.41;99554.16;10230780;28;96964;-84
2022/08/20 15:07:50;;;;;;;5.95;3.63;;;23.60;99.90;;;22.27;94.40;99569.09;10251176;28;98155;-84
2022/08/20 15:12:56;;;;;;;9.32;3.70;;;23.70;99.90;;;22.36;94.98;99576.47;10230658;28;98136;-83
2022/08/20 15:18:00;;;;;;;6.38;3.50;;;23.80;99.90;;;22.38;94.61;99587.06;10242073;28;98484;-84
2022/08/20 15:23:03;;;;;;;7.72;4.15;;;23.90;99.90;;;22.40;93.52;99587.59;10225417;28;97311;-84
2022/08/20 15:28:08;;;;;;;6.55;3.88;;;23.90;99.90;;;22.37;92.91;99588.09;10234238;28;98399;-84
2022/08/20 15:33:11;;;;;;;8.00;4.28;;;23.90;99.90;;;22.37;92.84;99583.53;10248590;28;98558;-83
2022/08/20 15:38:14;;;;;;;6.03;4.22;;;23.90;99.90;;;22.30;91.27;99573.97;10273460;28;96809;-84
2022/08/20 15:43:17;;;;;;;5.63;3.80;;;23.80;99.90;;;22.26;91.52;99570.19;10281753;28;97384;-84
2022/08/20 15:48:40;;;;;;;6.68;4.03;;;23.80;99.90;;;22.25;92.76;99565.81;10270916;28;97163;-83
2022/08/20 15:54:09;;;;;;;6.15;3.60;;;23.70;99.90;;;22.26;93.02;99576.41;10283313;28;98390;-84
2022/08/20 15:59:48;;;;;;;6.50;3.42;;;23.70;99.90;;;22.28;93.96;99563.41;10270680;28;98782;-84
2022/08/20 16:05:31;;;;;;;6.22;3.80;;;23.70;99.90;;;22.30;94.50;99574.78;10281371;28;97305;-84
2022/08/20 16:11:41;;;;;;;5.68;3.25;;;23.80;99.90;;;22.28;94.84;99578.84;10253183;28;96780;-84
2022/08/20 16:16:59;;;;;;;8.50;4.05;;;23.70;99.90;;;22.22;94.13;99572.59;10263162;28;97446;-84
2022/08/20 16:22:05;;;;;;;7.15;3.95;;;23.70;99.90;;;22.19;93.42;99581.22;10261121;28;97845;-84
2022/08/20 16:27:50;;;;;;;7.28;3.10;;;23.60;99.90;;;22.16;93.77;99570.91;10269276;28;96721;-84
2022/08/20 16:33:35;;;;;;;6.80;3.20;;;23.70;99.90;;;22.13;93.65;99566.84;10243413;28;98478;-84
2022/08/20 16:38:47;;;;;;;6.72;3.33;;;23.60;99.90;;;22.13;94.18;99579.53;10271920;28;96696;-83
2022/08/20 16:43:58;;;;;;;6.18;3.45;;;23.60;99.90;;;22.11;93.90;99584.41;10244280;28;97435;-84
2022/08/20 16:49:12;;;;;;;9.13;3.60;;;23.60;99.90;;;22.09;94.68;99581.97;10265554;28;96667;-84
2022/08/20 16:54:17;;;;;;;12.85;4.30;;;23.60;99.90;;;22.08;94.95;99579.50;10252135;28;96808;-84
2022/08/20 16:59:32;;;;;;;9.25;5.38;;;23.60;99.90;;;22.05;95.16;99591.63;10278805;28;98217;-83
2022/08/20 17:04:48;;;;;;;7.85;4.22;;;23.50;99.90;;;22.01;95.48;99598.66;10260112;28;96950;-84
2022/08/20 17:10:36;;;;;;;10.10;4.05;;;23.50;99.90;;;21.99;95.79;99592.66;10261258;28;97351;-84
2022/08/20 17:15:43;;;;;;;7.30;4.57;;;23.40;99.90;;;21.92;96.00;99590.16;10285632;28;98204;-84
2022/08/20 17:20:46;;;;;;;7.22;5.05;;;23.30;99.90;;;21.88;95.84;99582.81;10267176;28;96606;-83
2022/08/20 17:26:01;;;;;;;9.40;5.75;;;23.30;99.90;;;21.84;96.23;99587.94;10265586;28;96899;-83
2022/08/20 17:31:04;;;;;;;10.02;7.05;;;23.20;99.90;;;21.80;96.42;99575.19;10280266;28;98583;-83
2022/08/20 17:36:16;;;;;;;10.07;6.60;;;23.20;99.90;;;21.75;96.77;99589.47;10274119;28;97150;-83
2022/08/20 17:41:34;;;;;;;13.43;6.95;;;23.20;99.90;;;21.65;97.03;99573.13;10269804;28;96825;-83
2022/08/20 17:46:43;;;;;;;;;;;23.10;99.90;;;21.59;97.12;99574.16;10262095;28;98955;-82
2022/08/20 17:51:54;;;;;;;10.07;5.13;;;23.00;99.90;;;21.43;97.46;99583.19;10255063;28;96999;-82
2022/08/20 17:57:11;;;;;;;7.38;4.93;;;22.80;99.90;;;21.31;97.81;99577.94;10265771;28;98533;-82
2022/08/20 18:02:16;;;;;;;11.30;5.97;;;22.70;99.90;;;21.20;98.01;99573.44;10255427;28;98466;-82
2022/08/20 18:07:30;;;;;;;7.43;4.90;;;22.60;99.90;;;21.07;98.21;99590.84;10268953;28;97016;-82
2022/08/20 18:12:39;;;;;;;6.93;4.05;;;22.50;99.90;;;21.00;98.43;99591.03;10273673;28;98166;-84
2022/08/20 18:18:29;;;;;;;7.97;4.68;;;22.40;99.90;;;20.92;98.42;99599.56;10264297;28;98126;-83
2022/08/20 18:23:57;;;;;;;6.80;3.90;;;22.30;99.90;;;20.78;98.32;99582.09;10269313;28;97260;-84
2022/08/20 18:29:21;;;;;;;6.90;4.00;;;22.20;99.90;;;20.63;98.24;99582.72;10284638;28;97624;-85
2022/08/20 18:34:28;;;;;;;7.72;4.45;;;22.10;99.90;;;20.52;98.26;99567.44;10243642;28;97352;-85
2022/08/20 18:39:37;;;;;;;8.25;4.38;;;21.90;99.90;;;20.40;97.92;99562.13;10261137;28;97289;-84
2022/08/20 18:44:47;;;;;;;10.57;4.47;;;21.70;99.90;;;20.28;97.93;99564.91;10264415;28;98736;-89
2022/08/20 18:50:37;;;;;;;6.80;4.22;;;21.60;99.90;;;20.18;97.39;99574.72;10263997;28;97073;-87
2022/08/20 18:56:07;;;;;;;8.02;3.33;;;21.50;99.90;;;20.07;97.20;99581.00;10260518;28;97131;-90
2022/08/20 19:01:12;;;;;;;8.33;3.47;;;21.40;99.90;;;19.95;97.21;99570.28;10292104;28;96903;-87
2022/08/20 19:06:43;;;;;;;11.70;3.70;;;21.30;99.90;;;19.84;96.50;99580.06;10291209;28;97499;-88
2022/08/20 19:12:10;;;;;;;9.35;2.90;;;21.20;99.90;;;19.78;96.44;99584.56;10275217;28;96986;-87
2022/08/20 19:17:39;;;;;;;7.13;3.75;;;21.10;99.90;;;19.73;95.91;99591.75;10293363;28;96554;-86
2022/08/20 19:22:44;;;;;;;9.15;5.22;;;21.10;99.90;;;19.73;96.20;99580.97;10260692;28;96700;-88
2022/08/20 19:27:48;;;;;;;9.43;5.20;;;21.10;99.90;;;19.76;96.15;99559.75;10262341;28;96677;-89
2022/08/20 19:32:51;;;;;;;7.97;4.88;;;21.10;99.90;;;19.82;96.19;99547.16;10273035;28;98481;-90
2022/08/20 19:37:54;;;;;;;7.18;5.13;;;21.10;99.90;;;19.86;96.08;99542.94;10281270;28;98093;-88
2022/08/20 19:43:05;;;;;;;8.93;5.20;;;21.20;99.90;;;19.87;96.11;99539.16;10286678;28;97437;-87
2022/08/20 19:48:13;;;;;;;11.07;6.18;;;21.20;99.90;;;19.92;95.82;99555.44;10268946;28;98234;-89
2022/08/20 19:53:32;;;;;;;10.50;6.00;;;21.20;99.90;;;19.96;96.22;99561.94;10286096;28;96728;-91
2022/08/20 19:58:36;;;;;;;13.50;6.13;;;21.20;99.90;;;20.01;95.99;99563.91;10270365;28;98816;-87
2022/08/20 20:03:38;;;;;;;10.27;6.13;;;21.30;99.90;;;20.02;95.39;99554.75;10262462;28;96903;-91
2022/08/20 20:09:12;;;;;;;10.18;6.30;;;21.30;99.90;;;20.02;95.40;99546.66;10273745;28;96525;-90
2022/08/20 20:14:17;;;;;;;9.18;6.43;;;21.30;99.90;;;20.03;95.50;99549.16;10246694;28;98396;-92
2022/08/20 20:19:21;;;;;;;8.48;6.57;;;21.30;99.90;;;20.04;95.38;99539.16;10242556;28;97000;-89
2022/08/20 20:24:40;;;;;;;9.13;7.00;;;21.30;99.90;;;20.04;95.49;99526.50;10255217;28;97635;-91
2022/08/20 20:29:43;;;;;;;11.45;7.30;;;21.30;99.90;;;20.05;95.60;99521.91;10252847;28;96747;-89
2022/08/20 20:34:57;;;;;;;10.65;6.43;;;21.30;99.90;;;20.05;95.66;99528.13;10265811;28;97710;-93
2022/08/20 20:40:08;;;;;;;9.30;6.07;;;21.30;99.90;;;20.03;95.99;99516.78;10257609;28;98091;-92
2022/08/20 20:45:28;;;;;;;8.35;7.05;;;21.30;99.90;;;20.04;96.04;99521.09;10261346;28;97349;-90
2022/08/20 20:50:34;;;;;;;11.43;6.18;;;21.30;99.90;;;20.05;96.44;99503.84;10243720;28;96636;-92
2022/08/20 20:55:37;;;;;;;8.65;5.80;;;21.30;99.90;;;20.08;95.96;99501.72;10270315;28;97046;-84
2022/08/20 21:00:41;;;;;;;7.20;4.95;;;21.30;99.90;;;20.08;95.91;99499.03;10279103;28;97796;-87
2022/08/20 21:05:44;;;;;;;11.60;6.10;;;21.40;99.90;;;20.09;95.55;99493.41;10241671;28;98356;-87
2022/08/20 21:10:47;;;;;;;9.77;5.90;;;21.30;99.90;;;20.11;95.31;99501.25;10252452;28;96603;-88
2022/08/20 21:15:50;;;;;;;8.05;5.78;;;21.40;99.90;;;20.10;95.24;99503.13;10262569;28;98581;-88
2022/08/20 21:20:53;;;;;;;10.40;6.30;;;21.40;99.90;;;20.13;94.96;99509.88;10265915;28;96668;-88